Time;durP1;ratioP1;P1;durP2;ratioP2;P2;SDS_P1;SDS_P2;PMS_P1;PMS_P2;Temp;Humidity;BMP_temperature;BMP_pressure;BME280_temperature;BME280_humidity;BME280_pressure;Samples;Min_cycle;Max_cycle;Signal;HPM_P1;HPM_P2
2022/05/30 00:00:53;;;;;;;1.83;1.67;;;14.10;47.60;;;;;;5045604;28;20446;-88
2022/05/30 00:03:20;;;;;;;3.00;2.70;;;14.20;47.70;;;;;;5081105;28;20458;-88
2022/05/30 00:05:49;;;;;;;2.80;2.17;;;14.30;47.40;;;;;;5064058;28;21034;-87
2022/05/30 00:08:18;;;;;;;3.23;2.30;;;14.30;47.50;;;;;;5087468;28;21004;-89
2022/05/30 00:10:45;;;;;;;4.47;2.40;;;14.30;47.40;;;;;;5040581;28;20439;-89
2022/05/30 00:13:13;;;;;;;3.00;2.53;;;14.40;47.50;;;;;;5091493;28;20475;-89
2022/05/30 00:15:41;;;;;;;2.87;2.40;;;14.30;47.80;;;;;;5049691;28;20446;-88
2022/05/30 00:18:09;;;;;;;3.73;2.17;;;14.10;47.70;;;;;;5062098;28;20464;-88
2022/05/30 00:20:37;;;;;;;2.80;2.00;;;13.90;48.90;;;;;;5071483;28;20500;-88
2022/05/30 00:23:04;;;;;;;3.90;2.10;;;14.00;48.20;;;;;;5062232;28;20509;-88
2022/05/30 00:25:31;;;;;;;2.23;2.03;;;14.00;48.30;;;;;;5058352;28;20443;-89
2022/05/30 00:27:58;;;;;;;2.53;2.30;;;14.10;48.00;;;;;;5052205;28;20467;-89
2022/05/30 00:30:25;;;;;;;2.50;2.30;;;14.20;47.60;;;;;;5066209;28;20451;-90
2022/05/30 00:32:54;;;;;;;3.00;2.40;;;14.20;47.40;;;;;;5089872;28;20544;-89
2022/05/30 00:35:21;;;;;;;2.70;2.40;;;14.20;47.10;;;;;;5071097;28;20454;-89
2022/05/30 00:37:48;;;;;;;2.43;2.23;;;14.20;47.30;;;;;;5057754;28;20453;-88
2022/05/30 00:40:16;;;;;;;3.40;2.23;;;14.20;47.50;;;;;;5081307;28;20820;-89
2022/05/30 00:42:43;;;;;;;7.47;2.67;;;14.10;47.40;;;;;;5066835;28;20459;-86
2022/05/30 00:45:10;;;;;;;5.97;2.90;;;14.10;47.60;;;;;;5064659;28;20542;-89
2022/05/30 00:47:38;;;;;;;2.80;2.23;;;14.10;47.90;;;;;;5063745;28;20452;-89
2022/05/30 00:50:08;;;;;;;3.03;2.50;;;14.00;48.10;;;;;;5072381;28;20440;-89
2022/05/30 00:52:39;;;;;;;2.57;2.13;;;14.00;47.70;;;;;;5060639;28;20479;-89
2022/05/30 00:55:09;;;;;;;2.60;2.20;;;13.90;47.80;;;;;;5085747;28;21006;-89
2022/05/30 00:57:38;;;;;;;5.83;2.43;;;13.80;48.30;;;;;;5070519;28;20866;-89
2022/05/30 01:00:10;;;;;;;3.00;2.30;;;13.80;48.60;;;;;;5043298;28;20873;-89
2022/05/30 01:02:39;;;;;;;6.20;2.50;;;13.90;48.70;;;;;;5063566;28;20474;-88
2022/05/30 01:07:59;;;;;;;2.57;2.30;;;13.70;49.00;;;;;;5053419;28;20835;-86
2022/05/30 01:10:27;;;;;;;2.63;2.43;;;13.70;48.90;;;;;;5054413;28;20535;-88
2022/05/30 01:12:56;;;;;;;4.40;2.10;;;13.70;48.40;;;;;;5066497;28;20450;-88
2022/05/30 01:15:27;;;;;;;3.40;2.87;;;13.60;48.10;;;;;;5063686;28;20842;-89
2022/05/30 01:17:59;;;;;;;2.60;2.40;;;13.30;49.10;;;;;;5077313;28;20499;-90
2022/05/30 01:20:40;;;;;;;3.73;2.50;;;13.40;48.80;;;;;;5071236;28;20953;-89
2022/05/30 01:23:23;;;;;;;2.60;2.40;;;13.50;48.50;;;;;;5070412;28;20449;-89
2022/05/30 01:26:25;;;;;;;2.07;1.97;;;13.50;48.50;;;;;;5057254;28;20482;-88
2022/05/30 01:29:04;;;;;;;3.40;3.10;;;13.50;48.20;;;;;;5025591;28;20474;-87
2022/05/30 01:31:31;;;;;;;2.90;2.60;;;13.50;48.70;;;;;;5062042;28;21077;-88
2022/05/30 01:33:59;;;;;;;2.53;2.33;;;13.50;48.80;;;;;;5076544;28;20478;-87
2022/05/30 01:36:32;;;;;;;2.27;2.07;;;13.50;48.80;;;;;;5053187;28;20806;-89
2022/05/30 01:39:00;;;;;;;5.50;3.10;;;13.50;49.50;;;;;;5073303;28;20463;-88
2022/05/30 01:41:41;;;;;;;2.37;2.17;;;13.50;50.00;;;;;;5080698;28;20529;-88
2022/05/30 01:44:10;;;;;;;4.00;2.50;;;13.50;49.80;;;;;;5066257;28;20452;-88
2022/05/30 01:46:37;;;;;;;3.33;2.70;;;13.50;49.80;;;;;;5080322;28;20513;-90
2022/05/30 01:49:06;;;;;;;3.90;3.20;;;13.50;49.70;;;;;;5059056;28;20530;-88
2022/05/30 01:51:33;;;;;;;3.10;2.80;;;13.50;49.90;;;;;;5074044;28;20450;-89
2022/05/30 01:54:05;;;;;;;3.50;2.90;;;13.50;50.00;;;;;;5046390;28;20462;-88
2022/05/30 01:56:32;;;;;;;5.30;2.87;;;13.50;50.10;;;;;;5078978;28;20517;-90
2022/05/30 01:59:01;;;;;;;3.53;3.23;;;13.40;50.40;;;;;;5073273;28;20539;-90
2022/05/30 02:01:45;;;;;;;6.10;3.17;;;13.50;50.60;;;;;;5069787;28;20992;-89
2022/05/30 02:04:14;;;;;;;3.23;2.93;;;13.50;50.60;;;;;;5059927;28;20451;-89
2022/05/30 02:06:42;;;;;;;6.63;2.40;;;13.50;50.60;;;;;;5062390;28;20554;-89
2022/05/30 02:09:10;;;;;;;3.67;3.13;;;13.20;50.00;;;;;;5060275;28;20561;-89
2022/05/30 02:11:37;;;;;;;3.43;2.80;;;13.20;50.80;;;;;;5091774;28;20451;-89
2022/05/30 02:14:27;;;;;;;3.70;3.00;;;13.30;51.00;;;;;;5093047;28;20471;-88
2022/05/30 02:17:01;;;;;;;3.37;3.07;;;13.40;51.40;;;;;;5055394;28;20451;-89
2022/05/30 02:19:28;;;;;;;3.17;2.87;;;13.40;50.80;;;;;;5060193;28;20821;-88
2022/05/30 02:21:55;;;;;;;3.70;3.00;;;13.50;50.90;;;;;;5056958;28;20447;-89
2022/05/30 02:24:23;;;;;;;4.37;3.67;;;13.50;50.60;;;;;;5060986;28;20479;-91
2022/05/30 02:26:50;;;;;;;7.40;2.70;;;13.50;50.90;;;;;;5070536;28;20455;-89
2022/05/30 02:29:19;;;;;;;4.60;3.67;;;13.50;50.90;;;;;;5060715;28;20977;-89
2022/05/30 02:31:55;;;;;;;3.60;2.87;;;13.40;50.90;;;;;;5058443;28;20489;-90
2022/05/30 02:37:07;;;;;;;4.30;3.03;;;13.20;51.10;;;;;;5051291;28;20439;-88
2022/05/30 02:39:34;;;;;;;6.20;3.23;;;13.30;50.80;;;;;;5045726;28;20499;-90
2022/05/30 02:42:36;;;;;;;4.00;3.60;;;13.30;50.90;;;;;;5077523;28;20443;-90
2022/05/30 02:45:05;;;;;;;7.30;3.87;;;13.30;51.10;;;;;;5063935;28;21112;-89
2022/05/30 02:47:34;;;;;;;6.30;2.90;;;13.30;51.00;;;;;;5073918;28;20505;-89
2022/05/30 02:50:11;;;;;;;3.70;3.00;;;13.30;50.90;;;;;;5062600;28;20454;-88
2022/05/30 02:52:38;;;;;;;3.93;2.97;;;13.20;50.90;;;;;;5057456;28;20463;-88
2022/05/30 02:55:09;;;;;;;12.50;6.40;;;13.30;51.00;;;;;;5071585;28;20476;-89
2022/05/30 02:57:42;;;;;;;5.20;4.03;;;13.20;50.60;;;;;;5069752;28;20447;-88
2022/05/30 03:00:10;;;;;;;10.63;5.70;;;13.20;50.80;;;;;;5057468;28;20450;-88
2022/05/30 03:02:42;;;;;;;22.00;10.30;;;13.20;51.40;;;;;;5073996;28;20451;-89
2022/05/30 03:05:10;;;;;;;6.53;4.43;;;13.20;50.60;;;;;;5071440;28;20452;-90
2022/05/30 03:07:37;;;;;;;8.73;5.80;;;13.10;50.70;;;;;;5042417;28;20444;-89
2022/05/30 03:10:12;;;;;;;5.53;4.13;;;13.00;50.80;;;;;;5052083;28;20486;-90
2022/05/30 03:12:54;;;;;;;4.23;3.20;;;13.10;50.90;;;;;;5059528;28;20975;-88
2022/05/30 03:15:21;;;;;;;5.40;3.40;;;13.10;50.80;;;;;;5073385;28;20471;-89
2022/05/30 03:17:51;;;;;;;3.40;3.10;;;13.20;51.10;;;;;;5049687;28;20526;-88
2022/05/30 03:20:19;;;;;;;5.80;4.07;;;13.20;51.00;;;;;;5057312;28;20965;-89
2022/05/30 03:22:48;;;;;;;6.70;3.90;;;13.20;51.10;;;;;;5041526;28;20993;-89
2022/05/30 03:25:19;;;;;;;6.20;4.43;;;12.90;50.80;;;;;;5066439;28;20567;-88
2022/05/30 03:27:52;;;;;;;4.33;3.60;;;12.90;51.30;;;;;;5058990;28;20462;-89
2022/05/30 03:30:20;;;;;;;5.40;4.07;;;12.80;51.40;;;;;;5072434;28;20547;-88
2022/05/30 03:32:47;;;;;;;5.00;3.50;;;12.80;51.20;;;;;;5074126;28;20479;-89
2022/05/30 03:35:16;;;;;;;6.53;4.17;;;12.80;51.30;;;;;;5072134;28;20481;-89
2022/05/30 03:37:51;;;;;;;5.90;4.20;;;12.60;52.00;;;;;;5058304;28;20439;-88
2022/05/30 03:40:38;;;;;;;6.27;4.00;;;12.70;51.70;;;;;;5056094;28;21164;-88
2022/05/30 03:43:21;;;;;;;5.30;4.17;;;12.80;51.40;;;;;;5074736;28;20551;-87
2022/05/30 03:45:48;;;;;;;5.13;3.87;;;12.90;51.10;;;;;;5071885;28;20493;-89
2022/05/30 03:48:16;;;;;;;3.53;2.97;;;13.00;51.10;;;;;;5057696;28;20507;-89
2022/05/30 03:50:45;;;;;;;8.93;3.47;;;13.10;51.10;;;;;;5075976;28;20535;-89
2022/05/30 03:53:13;;;;;;;3.90;3.07;;;13.10;51.30;;;;;;5057587;28;20501;-89
2022/05/30 03:55:43;;;;;;;4.00;2.83;;;13.10;51.60;;;;;;5059232;28;20977;-89
2022/05/30 03:58:12;;;;;;;4.70;2.90;;;13.20;51.60;;;;;;5083763;28;20462;-88
2022/05/30 04:00:42;;;;;;;3.80;2.87;;;13.20;51.70;;;;;;5064500;28;20474;-89
2022/05/30 04:03:09;;;;;;;4.00;3.20;;;12.70;52.20;;;;;;5056298;28;21046;-88
2022/05/30 04:05:37;;;;;;;4.17;3.33;;;12.70;52.50;;;;;;5092238;28;20455;-89
2022/05/30 04:08:06;;;;;;;2.63;2.43;;;12.60;52.70;;;;;;5073337;28;20478;-89
2022/05/30 04:11:11;;;;;;;4.33;3.37;;;12.60;52.70;;;;;;5072227;28;20454;-88
2022/05/30 04:14:04;;;;;;;3.70;3.07;;;12.40;53.20;;;;;;5046651;28;20451;-89
2022/05/30 04:16:34;;;;;;;3.27;2.97;;;12.20;53.70;;;;;;5072342;28;21490;-89
2022/05/30 04:19:07;;;;;;;6.90;3.60;;;12.00;54.40;;;;;;5063023;28;20630;-89
2022/05/30 04:21:35;;;;;;;4.00;3.30;;;12.20;54.30;;;;;;5061224;28;20451;-89
2022/05/30 04:24:04;;;;;;;4.43;3.40;;;12.40;53.80;;;;;;5049979;28;20460;-89
2022/05/30 04:26:37;;;;;;;4.40;3.67;;;12.50;53.30;;;;;;5057978;28;20434;-88
2022/05/30 04:29:05;;;;;;;6.87;4.77;;;12.60;53.10;;;;;;5077110;28;20462;-89
2022/05/30 04:31:50;;;;;;;4.07;3.40;;;12.70;52.70;;;;;;5071715;28;20580;-88
2022/05/30 04:34:17;;;;;;;3.97;3.50;;;12.80;52.80;;;;;;5057158;28;20924;-88
2022/05/30 04:36:44;;;;;;;4.47;3.70;;;12.90;52.40;;;;;;5038524;28;20485;-88
2022/05/30 04:39:13;;;;;;;5.30;4.40;;;13.00;52.20;;;;;;5066337;28;20482;-86
2022/05/30 04:42:10;;;;;;;6.97;4.60;;;13.00;52.30;;;;;;5053909;28;20444;-89
2022/05/30 04:44:55;;;;;;;8.23;4.47;;;13.10;52.10;;;;;;5061165;28;20435;-87
2022/05/30 04:47:48;;;;;;;5.40;4.07;;;13.20;52.40;;;;;;5063520;28;20482;-87
2022/05/30 04:50:17;;;;;;;4.80;3.70;;;13.30;51.90;;;;;;5054758;28;20439;-87
2022/05/30 04:52:46;;;;;;;6.07;4.83;;;13.30;51.80;;;;;;5051963;28;21012;-89
2022/05/30 04:55:44;;;;;;;5.27;4.40;;;13.10;52.10;;;;;;5054532;28;20463;-87
2022/05/30 04:58:19;;;;;;;7.50;4.20;;;12.90;52.40;;;;;;5064134;28;21065;-88
2022/05/30 05:00:49;;;;;;;4.57;4.17;;;12.90;52.80;;;;;;5048422;28;20593;-88
2022/05/30 05:03:19;;;;;;;6.67;4.40;;;13.00;52.80;;;;;;5056636;28;21162;-90
2022/05/30 05:05:47;;;;;;;5.37;4.30;;;13.20;52.30;;;;;;5048445;28;20463;-88
2022/05/30 05:08:32;;;;;;;3.93;3.53;;;13.30;52.00;;;;;;5048596;28;20483;-88
2022/05/30 05:11:38;;;;;;;4.30;3.90;;;13.30;51.70;;;;;;5062394;28;20448;-89
2022/05/30 05:14:37;;;;;;;7.03;4.03;;;13.40;51.80;;;;;;5033367;28;20463;-88
2022/05/30 05:17:23;;;;;;;6.13;3.80;;;13.50;51.80;;;;;;5058272;28;20563;-88
2022/05/30 05:19:50;;;;;;;5.03;3.60;;;13.60;51.70;;;;;;5067087;28;20481;-88
2022/05/30 05:22:17;;;;;;;6.93;3.97;;;13.50;51.40;;;;;;5053767;28;20469;-88
2022/05/30 05:24:44;;;;;;;5.30;4.80;;;13.20;52.00;;;;;;5075728;28;20743;-89
2022/05/30 05:27:31;;;;;;;5.47;4.73;;;13.30;52.20;;;;;;5068036;28;20508;-88
2022/05/30 05:29:58;;;;;;;5.47;4.90;;;13.30;52.40;;;;;;5077221;28;20455;-88
2022/05/30 05:32:26;;;;;;;5.43;4.30;;;13.20;52.60;;;;;;5074447;28;20772;-88
2022/05/30 05:34:54;;;;;;;4.93;4.40;;;13.30;52.60;;;;;;5055688;28;20463;-88
2022/05/30 05:37:21;;;;;;;6.27;4.80;;;13.10;52.70;;;;;;5060816;28;21491;-87
2022/05/30 05:39:56;;;;;;;4.60;3.97;;;13.30;52.60;;;;;;5059981;28;20477;-88
2022/05/30 05:42:23;;;;;;;4.87;4.30;;;13.40;52.50;;;;;;5079770;28;20814;-87
2022/05/30 05:44:54;;;;;;;5.67;5.03;;;13.40;52.50;;;;;;5055022;28;20442;-87
2022/05/30 05:47:21;;;;;;;7.10;4.47;;;13.20;52.80;;;;;;5060144;28;21030;-86
2022/05/30 05:49:48;;;;;;;4.90;4.40;;;13.10;53.40;;;;;;5069713;28;20472;-86
2022/05/30 05:52:16;;;;;;;9.00;5.47;;;13.10;53.80;;;;;;5070651;28;20487;-86
2022/05/30 05:54:43;;;;;;;8.37;5.10;;;13.10;54.00;;;;;;5053714;28;20550;-86
2022/05/30 05:57:11;;;;;;;5.80;4.50;;;13.30;54.00;;;;;;5054486;28;20493;-86
2022/05/30 05:59:41;;;;;;;9.23;5.43;;;13.40;53.50;;;;;;5052575;28;20480;-86
2022/05/30 06:02:09;;;;;;;5.03;4.60;;;13.40;53.80;;;;;;5033716;28;20978;-87
2022/05/30 06:04:38;;;;;;;4.27;3.87;;;13.50;53.80;;;;;;5038432;28;20965;-87
2022/05/30 06:07:23;;;;;;;5.90;4.50;;;13.70;53.30;;;;;;5088225;28;21441;-87
2022/05/30 06:10:13;;;;;;;4.63;4.20;;;13.90;53.10;;;;;;5068944;28;20443;-87
2022/05/30 06:12:46;;;;;;;5.37;3.90;;;14.20;52.50;;;;;;5052136;28;20751;-86
2022/05/30 06:15:17;;;;;;;4.93;3.67;;;14.10;52.50;;;;;;5040836;28;20528;-87
2022/05/30 06:18:08;;;;;;;4.33;4.00;;;14.20;52.70;;;;;;5044739;28;20901;-87
2022/05/30 06:20:35;;;;;;;5.97;4.33;;;14.40;52.70;;;;;;5061064;28;20458;-86
2022/05/30 06:23:02;;;;;;;5.53;4.37;;;14.60;52.50;;;;;;5049242;28;20436;-86
2022/05/30 06:26:01;;;;;;;6.23;4.77;;;14.70;52.30;;;;;;5066546;28;20490;-87
2022/05/30 06:28:40;;;;;;;6.20;4.53;;;14.80;51.90;;;;;;5078104;28;20471;-86
2022/05/30 06:31:14;;;;;;;4.47;4.07;;;14.80;51.90;;;;;;5066954;28;20451;-85
2022/05/30 06:33:42;;;;;;;6.40;4.00;;;14.90;52.50;;;;;;5038165;28;20567;-86
2022/05/30 06:36:16;;;;;;;6.00;4.60;;;14.90;52.30;;;;;;5057140;28;21489;-88
2022/05/30 06:38:43;;;;;;;6.27;4.40;;;15.10;51.90;;;;;;5068445;28;20473;-86
2022/05/30 06:41:33;;;;;;;4.33;3.97;;;15.20;51.50;;;;;;5048845;28;20470;-88
2022/05/30 06:44:07;;;;;;;4.40;4.00;;;15.30;51.40;;;;;;5056728;28;20454;-88
2022/05/30 06:46:53;;;;;;;4.23;3.73;;;15.10;52.10;;;;;;5068643;28;20475;-87
2022/05/30 06:49:40;;;;;;;3.87;3.47;;;15.20;52.40;;;;;;5068548;28;20472;-86
2022/05/30 06:52:12;;;;;;;4.53;4.10;;;15.20;52.00;;;;;;5034194;28;21019;-86
2022/05/30 06:54:39;;;;;;;6.67;4.40;;;15.20;52.30;;;;;;5038447;28;20519;-86
2022/05/30 06:59:53;;;;;;;3.70;3.40;;;15.50;51.90;;;;;;5034168;28;20466;-87
2022/05/30 07:02:20;;;;;;;3.90;3.30;;;16.00;51.50;;;;;;5050521;28;20601;-87
2022/05/30 07:05:08;;;;;;;5.10;3.20;;;16.20;50.80;;;;;;5063670;28;20470;-87
2022/05/30 07:07:56;;;;;;;5.47;3.30;;;16.30;50.10;;;;;;5066718;28;20447;-87
2022/05/30 07:10:45;;;;;;;4.63;3.90;;;16.10;50.60;;;;;;5033291;28;20576;-87
2022/05/30 07:13:15;;;;;;;5.23;3.37;;;16.20;50.70;;;;;;5052079;28;20469;-87
2022/05/30 07:15:43;;;;;;;3.33;3.03;;;16.50;50.40;;;;;;5077126;28;21012;-88
2022/05/30 07:18:15;;;;;;;3.47;2.80;;;16.60;49.70;;;;;;5070430;28;20466;-87
2022/05/30 07:20:45;;;;;;;5.57;3.10;;;16.80;49.90;;;;;;5054986;28;20447;-87
2022/05/30 07:23:30;;;;;;;5.53;3.13;;;16.70;49.30;;;;;;5085207;28;20438;-89
2022/05/30 07:26:19;;;;;;;9.60;3.43;;;16.80;49.30;;;;;;5076361;28;20439;-87
2022/05/30 07:29:06;;;;;;;4.20;2.70;;;16.70;49.70;;;;;;5069586;28;20498;-87
2022/05/30 07:31:51;;;;;;;4.67;3.17;;;16.90;49.10;;;;;;5066221;28;20520;-87
2022/05/30 07:34:37;;;;;;;5.10;2.90;;;17.20;49.40;;;;;;5068297;28;20495;-87
2022/05/30 07:37:24;;;;;;;4.60;2.43;;;17.40;47.90;;;;;;5068322;28;20451;-88
2022/05/30 07:40:01;;;;;;;4.73;2.33;;;17.50;47.70;;;;;;5041179;28;20468;-87
2022/05/30 07:42:48;;;;;;;7.20;2.60;;;17.60;47.80;;;;;;5068014;28;20470;-87
2022/05/30 07:45:27;;;;;;;8.33;2.20;;;17.70;47.30;;;;;;5058843;28;20894;-86
2022/05/30 07:48:12;;;;;;;4.50;2.10;;;18.10;47.30;;;;;;5060922;28;20467;-87
2022/05/30 07:50:58;;;;;;;7.00;2.40;;;18.50;47.20;;;;;;5086264;28;20475;-86
2022/05/30 07:53:34;;;;;;;3.60;2.17;;;18.60;46.00;;;;;;5045343;28;20438;-87
2022/05/30 07:56:10;;;;;;;3.03;2.30;;;18.60;45.50;;;;;;5048740;28;21126;-87
2022/05/30 07:58:37;;;;;;;2.80;2.30;;;18.40;46.30;;;;;;5062774;28;20535;-86
2022/05/30 08:01:06;;;;;;;5.13;2.20;;;18.40;46.00;;;;;;5056965;28;20994;-87
2022/05/30 08:03:35;;;;;;;2.60;2.00;;;18.50;45.10;;;;;;5066369;28;21160;-87
2022/05/30 08:06:30;;;;;;;2.60;1.50;;;18.40;45.50;;;;;;5050371;28;20545;-87
2022/05/30 08:09:17;;;;;;;3.60;2.30;;;18.50;44.40;;;;;;5066137;28;20507;-87
2022/05/30 08:11:55;;;;;;;3.50;1.40;;;18.40;43.90;;;;;;5060805;28;20459;-87
2022/05/30 08:14:42;;;;;;;2.67;1.90;;;18.60;43.30;;;;;;5050426;28;21466;-87
2022/05/30 08:17:09;;;;;;;4.23;2.00;;;18.50;43.20;;;;;;5053415;28;21308;-87
2022/05/30 08:19:40;;;;;;;1.20;1.10;;;18.80;43.10;;;;;;5065124;28;20478;-87
2022/05/30 08:22:10;;;;;;;1.80;1.17;;;18.80;39.60;;;;;;5057651;28;20883;-87
2022/05/30 08:24:41;;;;;;;0.90;0.80;;;19.10;40.20;;;;;;5069234;28;20447;-88
2022/05/30 08:27:14;;;;;;;1.53;1.30;;;19.50;39.00;;;;;;5082779;28;20505;-87
2022/05/30 08:29:48;;;;;;;3.40;1.83;;;19.70;39.10;;;;;;5075011;28;21312;-87
2022/05/30 08:32:15;;;;;;;3.03;1.40;;;19.50;39.90;;;;;;5054280;28;20456;-86
2022/05/30 08:35:16;;;;;;;3.10;1.40;;;19.10;39.20;;;;;;5004703;28;20492;-87
2022/05/30 08:37:44;;;;;;;4.00;1.40;;;19.20;39.90;;;;;;5052340;28;20460;-87
2022/05/30 08:43:07;;;;;;;2.23;1.30;;;19.50;38.70;;;;;;5074010;28;20450;-86
2022/05/30 08:45:45;;;;;;;1.20;1.10;;;19.70;39.40;;;;;;5064395;28;20464;-87
2022/05/30 08:48:37;;;;;;;2.53;1.20;;;19.90;38.10;;;;;;5068320;28;20458;-88
2022/05/30 08:51:16;;;;;;;6.80;1.30;;;20.10;36.90;;;;;;5074690;28;20918;-88
2022/05/30 08:54:01;;;;;;;2.10;1.10;;;20.10;37.80;;;;;;5037412;28;20509;-88
2022/05/30 08:56:34;;;;;;;1.13;1.00;;;20.30;36.60;;;;;;5079627;28;20470;-87
2022/05/30 08:59:44;;;;;;;1.50;1.30;;;20.40;37.00;;;;;;5066604;28;20472;-87
2022/05/30 09:02:20;;;;;;;2.33;1.20;;;20.60;37.40;;;;;;5069295;28;20442;-87
2022/05/30 09:05:05;;;;;;;4.10;1.20;;;20.80;36.00;;;;;;5043454;28;20582;-88
2022/05/30 09:07:41;;;;;;;3.17;1.57;;;20.90;36.30;;;;;;5079418;28;20571;-87
2022/05/30 09:10:14;;;;;;;1.77;1.30;;;21.20;35.90;;;;;;5060666;28;20500;-87
2022/05/30 09:12:47;;;;;;;2.37;1.10;;;21.40;36.80;;;;;;5079846;28;20549;-87
2022/05/30 09:15:27;;;;;;;1.40;1.30;;;21.30;34.80;;;;;;5068482;28;20447;-87
2022/05/30 09:18:05;;;;;;;4.63;1.37;;;21.30;37.00;;;;;;5053543;28;20482;-88
2022/05/30 09:20:33;;;;;;;2.73;1.60;;;21.20;36.20;;;;;;5070694;28;20863;-88
2022/05/30 09:23:05;;;;;;;1.77;1.13;;;21.40;35.60;;;;;;5054745;28;20554;-89
2022/05/30 09:29:02;;;;;;;2.93;1.33;;;21.80;35.40;;;;;;5071684;28;20471;-87
2022/05/30 09:31:55;;;;;;;3.00;1.40;;;22.30;34.10;;;;;;5070830;28;20449;-87
2022/05/30 09:34:33;;;;;;;1.23;1.13;;;22.70;34.80;;;;;;5071282;28;20456;-87
2022/05/30 09:37:35;;;;;;;1.23;1.13;;;22.80;30.40;;;;;;5037750;28;21020;-88
2022/05/30 09:40:21;;;;;;;1.73;1.60;;;23.10;32.00;;;;;;5064857;28;21285;-88
2022/05/30 09:43:06;;;;;;;2.10;1.37;;;22.80;31.80;;;;;;5052932;28;20682;-88
2022/05/30 09:45:36;;;;;;;1.77;1.10;;;22.60;31.90;;;;;;5052276;28;20454;-87
2022/05/30 09:48:05;;;;;;;2.40;1.30;;;22.40;31.90;;;;;;5067903;28;21017;-87
2022/05/30 09:50:43;;;;;;;1.73;1.50;;;22.50;31.80;;;;;;5061338;28;20538;-88
2022/05/30 09:53:10;;;;;;;3.10;1.00;;;22.70;32.00;;;;;;5068843;28;21119;-88
2022/05/30 09:55:48;;;;;;;2.43;1.27;;;23.10;31.40;;;;;;5069787;28;20444;-89
2022/05/30 09:58:17;;;;;;;1.10;1.00;;;22.90;31.40;;;;;;5052239;28;21016;-88
2022/05/30 10:01:13;;;;;;;1.87;1.30;;;23.00;32.40;;;;;;5046524;28;20447;-88
2022/05/30 10:03:44;;;;;;;1.97;1.63;;;23.10;31.90;;;;;;5068393;28;20521;-88
2022/05/30 10:06:25;;;;;;;2.90;1.40;;;23.00;31.40;;;;;;5069381;28;20459;-88
2022/05/30 10:09:10;;;;;;;1.80;1.20;;;22.50;31.40;;;;;;5058190;28;20979;-89
2022/05/30 10:11:37;;;;;;;2.03;1.40;;;22.10;32.40;;;;;;5060018;28;20440;-88
2022/05/30 10:14:20;;;;;;;1.40;1.30;;;22.10;32.70;;;;;;5062092;28;20615;-88
2022/05/30 10:17:14;;;;;;;2.17;1.00;;;22.00;31.90;;;;;;5074748;28;20460;-88
2022/05/30 10:19:47;;;;;;;1.53;1.00;;;21.70;31.30;;;;;;5065161;28;21045;-89
2022/05/30 10:28:51;;;;;;;1.23;1.13;;;20.70;34.70;;;;;;5094415;28;20463;-92
2022/05/30 10:31:44;;;;;;;1.20;1.00;;;20.60;35.30;;;;;;5073834;28;20483;-88
2022/05/30 10:34:34;;;;;;;1.10;1.00;;;20.40;35.30;;;;;;5059251;28;20446;-87
2022/05/30 10:37:11;;;;;;;2.13;1.13;;;20.70;36.70;;;;;;5072847;28;20458;-88
2022/05/30 10:40:11;;;;;;;1.47;1.10;;;20.70;35.30;;;;;;5074542;28;20462;-87
2022/05/30 10:42:45;;;;;;;1.57;1.20;;;20.60;35.70;;;;;;5053205;28;20466;-87
2022/05/30 10:45:18;;;;;;;2.80;1.30;;;20.70;35.10;;;;;;5059450;28;20448;-86
2022/05/30 10:47:46;;;;;;;1.13;1.00;;;20.60;36.00;;;;;;5061331;28;20458;-87
2022/05/30 10:50:21;;;;;;;2.10;1.00;;;20.50;35.60;;;;;;5055331;28;20450;-90
2022/05/30 10:52:55;;;;;;;1.60;1.17;;;20.60;35.90;;;;;;5069922;28;20455;-87
2022/05/30 10:55:36;;;;;;;2.60;1.10;;;20.70;35.80;;;;;;5085210;28;20450;-88
2022/05/30 10:58:09;;;;;;;1.67;1.00;;;21.00;36.60;;;;;;5070732;28;20574;-87
2022/05/30 11:00:44;;;;;;;1.63;1.40;;;21.30;35.20;;;;;;5052316;28;20432;-88
2022/05/30 11:03:23;;;;;;;2.80;1.07;;;21.50;34.70;;;;;;5061274;28;20855;-90
2022/05/30 11:05:57;;;;;;;1.43;1.07;;;21.70;34.10;;;;;;5062163;28;20519;-88
2022/05/30 11:08:32;;;;;;;4.00;1.20;;;22.00;33.40;;;;;;5046174;28;20463;-88
2022/05/30 11:11:05;;;;;;;2.93;1.00;;;22.20;31.90;;;;;;5069328;28;20434;-89
2022/05/30 11:13:40;;;;;;;1.10;1.00;;;22.20;32.90;;;;;;5069907;28;21130;-89
2022/05/30 11:16:38;;;;;;;1.10;1.00;;;22.60;33.00;;;;;;5057316;28;20487;-90
2022/05/30 11:19:31;;;;;;;1.37;1.07;;;22.90;31.60;;;;;;5067592;28;20967;-88
2022/05/30 11:22:24;;;;;;;1.77;1.20;;;23.00;30.40;;;;;;5051370;28;20447;-88
2022/05/30 11:24:53;;;;;;;1.10;1.00;;;22.90;31.60;;;;;;5053282;28;21266;-88
2022/05/30 11:27:39;;;;;;;1.10;1.00;;;22.80;32.60;;;;;;5067518;28;20446;-87
2022/05/30 11:30:27;;;;;;;1.30;1.20;;;23.40;32.30;;;;;;5059614;28;20477;-87
2022/05/30 11:33:28;;;;;;;1.53;1.07;;;23.60;29.80;;;;;;5061450;28;20455;-88
2022/05/30 11:36:19;;;;;;;2.30;0.90;;;23.60;30.20;;;;;;5068641;28;20444;-88
2022/05/30 11:39:06;;;;;;;1.00;0.90;;;23.50;30.40;;;;;;5054744;28;20495;-87
2022/05/30 11:41:44;;;;;;;1.50;1.00;;;23.40;31.50;;;;;;5066675;28;20456;-87
2022/05/30 11:44:30;;;;;;;1.20;1.10;;;23.20;30.70;;;;;;5085785;28;20463;-87
2022/05/30 11:47:09;;;;;;;2.13;1.10;;;23.10;30.10;;;;;;5068703;28;20578;-87
2022/05/30 11:49:39;;;;;;;1.43;1.33;;;23.10;30.70;;;;;;5067299;28;20487;-88
2022/05/30 11:52:18;;;;;;;1.50;0.90;;;23.20;30.00;;;;;;5060642;28;20455;-88
2022/05/30 11:55:05;;;;;;;1.40;1.30;;;23.00;29.80;;;;;;5049538;28;20806;-89
2022/05/30 11:57:40;;;;;;;1.40;1.00;;;22.90;29.70;;;;;;5087193;28;20557;-89
2022/05/30 12:00:13;;;;;;;1.00;0.90;;;23.00;30.30;;;;;;5039709;28;20472;-88
2022/05/30 12:03:24;;;;;;;1.97;1.20;;;22.80;30.00;;;;;;5086616;28;20471;-87
2022/05/30 12:06:11;;;;;;;0.90;0.83;;;23.20;32.00;;;;;;5077063;28;20454;-89
2022/05/30 12:09:11;;;;;;;2.20;1.20;;;23.60;30.90;;;;;;5059739;28;20470;-89
2022/05/30 12:12:18;;;;;;;2.07;1.20;;;23.80;32.30;;;;;;5041026;28;20484;-91
2022/05/30 12:15:41;;;;;;;1.73;1.60;;;23.80;29.90;;;;;;5021715;28;20928;-90
2022/05/30 12:24:30;;;;;;;1.50;1.00;;;24.30;29.90;;;;;;5054386;28;20435;-89
2022/05/30 12:27:10;;;;;;;1.20;1.10;;;24.40;30.70;;;;;;5046887;28;20504;-90
2022/05/30 12:29:52;;;;;;;1.40;1.00;;;24.80;30.00;;;;;;5073417;28;20939;-91
2022/05/30 12:32:39;;;;;;;1.00;0.90;;;24.80;29.60;;;;;;5064187;28;20471;-91
2022/05/30 12:35:29;;;;;;;1.17;1.07;;;24.60;29.30;;;;;;5051705;28;20452;-89
2022/05/30 12:38:21;;;;;;;1.40;1.20;;;24.40;29.50;;;;;;5049089;28;20553;-89
2022/05/30 12:41:10;;;;;;;1.23;1.13;;;24.20;30.00;;;;;;5042111;28;20439;-89
2022/05/30 12:43:43;;;;;;;1.10;1.00;;;24.10;30.00;;;;;;5053826;28;20453;-89
2022/05/30 12:46:16;;;;;;;1.57;1.00;;;23.90;30.10;;;;;;5067875;28;20443;-88
2022/05/30 12:48:58;;;;;;;1.10;1.00;;;23.80;30.20;;;;;;5059824;28;20476;-88
2022/05/30 12:51:31;;;;;;;2.90;1.13;;;23.20;29.50;;;;;;5061029;28;20455;-90
2022/05/30 12:54:44;;;;;;;1.43;1.17;;;23.20;31.20;;;;;;5053756;28;20462;-90
2022/05/30 12:57:37;;;;;;;1.20;1.10;;;23.00;31.60;;;;;;5061542;28;20558;-89
2022/05/30 13:00:30;;;;;;;1.30;1.20;;;22.80;32.80;;;;;;5020275;28;20970;-89
2022/05/30 13:03:27;;;;;;;1.20;1.10;;;22.90;31.40;;;;;;5068474;28;21161;-88
2022/05/30 13:06:10;;;;;;;1.30;1.20;;;22.90;31.40;;;;;;5053044;28;20492;-87
2022/05/30 13:08:52;;;;;;;1.60;1.27;;;23.10;30.60;;;;;;5059433;28;20973;-89
2022/05/30 13:11:58;;;;;;;1.37;1.20;;;23.30;31.50;;;;;;5044383;28;20454;-89
2022/05/30 13:14:39;;;;;;;2.00;1.40;;;23.70;31.10;;;;;;5088059;28;20462;-89
2022/05/30 13:17:30;;;;;;;1.40;1.10;;;23.80;30.70;;;;;;5064699;28;20609;-92
2022/05/30 13:20:06;;;;;;;1.27;1.17;;;23.70;30.00;;;;;;5048819;28;20570;-87
2022/05/30 13:22:37;;;;;;;2.43;2.23;;;23.60;30.40;;;;;;5056848;28;20486;-89
2022/05/30 13:25:07;;;;;;;1.30;1.00;;;23.60;31.20;;;;;;5049233;28;21020;-89
2022/05/30 13:27:34;;;;;;;1.20;1.10;;;24.10;30.60;;;;;;5071421;28;20452;-88
2022/05/30 13:30:03;;;;;;;1.40;1.30;;;24.30;29.90;;;;;;5068576;28;20475;-88
2022/05/30 13:32:31;;;;;;;2.10;1.40;;;23.70;29.20;;;;;;5069958;28;20752;-88
2022/05/30 13:35:00;;;;;;;3.97;1.00;;;23.40;29.90;;;;;;5076478;28;20454;-88
2022/05/30 13:37:31;;;;;;;1.40;1.30;;;23.30;30.40;;;;;;5072767;28;20460;-88
2022/05/30 13:40:01;;;;;;;1.40;1.20;;;23.40;30.10;;;;;;5091660;28;20466;-89
2022/05/30 13:42:31;;;;;;;2.90;2.40;;;23.60;29.80;;;;;;5073998;28;21127;-89
2022/05/30 13:45:01;;;;;;;1.27;1.17;;;23.90;29.70;;;;;;5055717;28;20986;-92
2022/05/30 13:47:29;;;;;;;1.67;1.00;;;24.20;28.40;;;;;;5074532;28;20954;-90
2022/05/30 13:49:57;;;;;;;1.27;1.13;;;24.10;29.00;;;;;;5071948;28;20489;-89
2022/05/30 13:52:29;;;;;;;1.50;1.20;;;24.10;29.10;;;;;;5094438;28;20451;-88
2022/05/30 13:55:02;;;;;;;2.30;1.37;;;24.10;29.90;;;;;;5093518;28;20450;-88
2022/05/30 13:57:30;;;;;;;1.53;1.40;;;23.90;29.90;;;;;;5075002;28;20564;-89
2022/05/30 14:00:00;;;;;;;2.47;1.10;;;23.40;30.40;;;;;;5079180;28;20546;-88